createdAt,value
2017-01-14T00:00:55.914Z,94.79
2017-01-14T00:02:04.924Z,94.42
2017-01-14T00:03:13.902Z,94.79
2017-01-14T00:04:22.884Z,95.64
2017-01-14T00:05:31.864Z,95.64
2017-01-14T00:06:40.850Z,94.79
2017-01-14T00:07:49.833Z,94.6
2017-01-14T00:08:58.819Z,93.94
2017-01-14T00:10:07.802Z,94.6
2017-01-14T00:11:16.787Z,94.6
2017-01-14T00:12:25.778Z,94.7
2017-01-14T00:13:34.759Z,93.75
2017-01-14T00:14:43.745Z,93.46
2017-01-14T00:15:52.727Z,93.75
2017-01-14T00:17:01.729Z,94.04
2017-01-14T00:18:10.710Z,94.42
2017-01-14T00:19:20.394Z,94.42
2017-01-14T00:20:30.640Z,93.94
2017-01-14T00:21:41.919Z,93.84
2017-01-14T00:22:52.769Z,94.42
2017-01-14T00:24:03.967Z,94.23
2017-01-14T00:25:15.597Z,94.13
2017-01-14T00:26:26.462Z,93.56
2017-01-14T00:27:37.492Z,93.94
2017-01-14T00:28:47.076Z,93.94
2017-01-14T00:29:56.701Z,93.37
2017-01-14T00:31:06.575Z,93.56
2017-01-14T00:32:16.476Z,94.6
2017-01-14T00:33:27.347Z,94.51
2017-01-14T00:34:37.541Z,94.51
2017-01-14T00:35:46.516Z,94.89
2017-01-14T00:36:55.502Z,95.07
2017-01-14T00:38:04.483Z,95.64
2017-01-14T00:39:13.461Z,95.64
2017-01-14T00:40:25.286Z,95.36
2017-01-14T00:41:34.263Z,94.6
2017-01-14T00:42:45.447Z,94.79
2017-01-14T00:43:56.371Z,95.36
2017-01-14T00:45:05.350Z,95.26
2017-01-14T00:46:14.331Z,95.45
2017-01-14T00:47:23.314Z,95.55
2017-01-14T00:48:32.294Z,95.64
2017-01-14T00:49:41.271Z,95.07
2017-01-14T00:50:50.254Z,94.98
2017-01-14T00:51:59.230Z,94.79
2017-01-14T00:53:08.212Z,94.89
2017-01-14T00:54:17.195Z,94.7
2017-01-14T00:55:26.180Z,94.89
2017-01-14T00:56:35.163Z,94.79
2017-01-14T00:57:44.141Z,95.07
2017-01-14T00:58:53.124Z,95.17
2017-01-14T01:00:02.106Z,95.36
2017-01-14T01:01:11.084Z,95.55
2017-01-14T01:02:20.065Z,95.55
2017-01-14T01:03:29.043Z,95.93
2017-01-14T01:04:38.025Z,95.64
2017-01-14T01:05:47.010Z,95.36
2017-01-14T01:06:55.991Z,95.07
2017-01-14T01:08:04.973Z,94.32
2017-01-14T01:09:13.961Z,94.7
2017-01-14T01:10:22.943Z,94.7
2017-01-14T01:11:31.924Z,94.89
2017-01-14T01:12:40.904Z,94.6
2017-01-14T01:13:49.888Z,95.26
2017-01-14T01:14:58.865Z,95.36
2017-01-14T01:16:07.847Z,95.45
2017-01-14T01:17:16.825Z,95.26
2017-01-14T01:18:25.807Z,95.45
2017-01-14T01:19:34.786Z,95.55
2017-01-14T01:20:43.767Z,95.45
2017-01-14T01:21:52.756Z,94.6
2017-01-14T01:23:01.739Z,95.07
2017-01-14T01:24:10.718Z,94.42
2017-01-14T01:25:19.699Z,94.98
2017-01-14T01:26:28.679Z,94.79
2017-01-14T01:27:37.657Z,94.98
2017-01-14T01:28:46.637Z,94.79
2017-01-14T01:29:55.619Z,94.89
2017-01-14T01:31:04.600Z,94.98
2017-01-14T01:32:13.589Z,95.07
2017-01-14T01:33:22.570Z,95.26
2017-01-14T01:34:31.552Z,94.89
2017-01-14T01:35:40.532Z,95.07
2017-01-14T01:36:49.515Z,95.64
2017-01-14T01:37:58.497Z,94.89
2017-01-14T01:39:07.473Z,94.51
2017-01-14T01:40:16.452Z,94.98
2017-01-14T01:41:25.432Z,94.98
2017-01-14T01:42:34.410Z,94.79
2017-01-14T01:43:43.417Z,94.79
2017-01-14T01:44:52.410Z,94.42
2017-01-14T01:46:01.388Z,94.6
2017-01-14T01:47:10.371Z,94.32
2017-01-14T01:48:19.352Z,94.89
2017-01-14T01:49:28.358Z,94.7
2017-01-14T01:50:37.343Z,94.51
2017-01-14T01:51:46.320Z,93.94
2017-01-14T01:52:55.330Z,93.46
2017-01-14T01:54:04.306Z,93.46
2017-01-14T01:55:13.287Z,93.75
2017-01-14T01:56:22.274Z,94.7
2017-01-14T01:57:31.247Z,93.65
2017-01-14T01:58:40.236Z,93.75
2017-01-14T01:59:49.213Z,94.04
2017-01-14T02:00:58.194Z,93.84
2017-01-14T02:02:07.178Z,93.56
2017-01-14T02:03:16.157Z,93.56
2017-01-14T02:04:25.140Z,93.94
2017-01-14T02:05:34.114Z,93.75
2017-01-14T02:06:43.106Z,93.65
2017-01-14T02:07:52.087Z,94.51
2017-01-14T02:09:01.072Z,94.79
2017-01-14T02:10:10.047Z,94.42
2017-01-14T02:11:19.023Z,94.42
2017-01-14T02:12:28.005Z,94.7
2017-01-14T02:13:36.984Z,94.6
2017-01-14T02:14:45.962Z,94.51
2017-01-14T02:15:54.944Z,94.7
2017-01-14T02:17:03.932Z,94.7
2017-01-14T02:18:12.915Z,94.89
2017-01-14T02:19:21.929Z,94.51
2017-01-14T02:20:30.910Z,94.04
2017-01-14T02:21:39.885Z,93.65
2017-01-14T02:22:48.864Z,93.84
2017-01-14T02:23:57.843Z,94.04
2017-01-14T02:25:06.826Z,93.94
2017-01-14T02:26:15.809Z,93.65
2017-01-14T02:27:24.787Z,93.94
2017-01-14T02:28:33.768Z,93.65
2017-01-14T02:29:42.749Z,93.65
2017-01-14T02:30:51.729Z,93.94
2017-01-14T02:32:00.707Z,93.46
2017-01-14T02:33:09.686Z,93.08
2017-01-14T02:34:18.661Z,93.37
2017-01-14T02:35:27.641Z,93.56
2017-01-14T02:36:36.619Z,93.56
2017-01-14T02:37:45.599Z,93.94
2017-01-14T02:38:54.584Z,93.94
2017-01-14T02:40:03.575Z,93.65
2017-01-14T02:41:12.554Z,93.84
2017-01-14T02:42:21.535Z,93.56
2017-01-14T02:43:30.512Z,93.75
2017-01-14T02:44:39.512Z,94.23
2017-01-14T02:45:48.490Z,94.23
2017-01-14T02:46:57.469Z,94.56
2017-01-14T02:48:06.452Z,94.46
2017-01-14T02:49:15.438Z,94.04
2017-01-14T02:50:24.696Z,93.84
2017-01-14T02:51:34.342Z,93.84
2017-01-14T02:52:43.588Z,93.84
2017-01-14T02:53:53.221Z,94.6
2017-01-14T02:55:02.206Z,94.42
2017-01-14T02:56:11.183Z,94.7
2017-01-14T02:57:20.168Z,94.23
2017-01-14T02:58:29.151Z,94.51
2017-01-14T02:59:38.125Z,94.51
2017-01-14T03:00:47.105Z,93.65
2017-01-14T03:01:56.081Z,93.65
2017-01-14T03:03:05.060Z,94.32
2017-01-14T03:04:14.036Z,94.7
2017-01-14T03:05:23.047Z,94.7
2017-01-14T03:06:32.026Z,94.7
2017-01-14T03:07:41.009Z,94.23
2017-01-14T03:08:49.990Z,93.94
2017-01-14T03:09:58.975Z,93.84
2017-01-14T03:11:07.962Z,93.84
2017-01-14T03:12:16.964Z,93.94
2017-01-14T03:13:25.943Z,94.04
2017-01-14T03:14:34.921Z,93.56
2017-01-14T03:15:43.902Z,93.37
2017-01-14T03:16:52.876Z,92.94
2017-01-14T03:18:01.852Z,93.42
2017-01-14T03:19:10.828Z,93.56
2017-01-14T03:20:19.806Z,93.8
2017-01-14T03:21:28.790Z,93.84
2017-01-14T03:22:37.777Z,93.65
2017-01-14T03:23:46.755Z,93.56
2017-01-14T03:24:55.735Z,93.61
2017-01-14T03:26:04.713Z,92.76
2017-01-14T03:27:13.690Z,93.23
2017-01-14T03:28:22.669Z,93.04
2017-01-14T03:29:31.648Z,92.94
2017-01-14T03:30:40.651Z,92.94
2017-01-14T03:31:49.637Z,93.04
2017-01-14T03:32:58.620Z,93.23
2017-01-14T03:34:07.628Z,93.42
2017-01-14T03:35:16.604Z,93.51
2017-01-14T03:36:25.585Z,93.8
2017-01-14T03:37:34.562Z,94.56
2017-01-14T03:38:43.574Z,94.37
2017-01-14T03:39:52.553Z,94.56
2017-01-14T03:41:01.534Z,94.46
2017-01-14T03:42:10.515Z,94.18
2017-01-14T03:43:19.494Z,93.89
2017-01-14T03:44:28.472Z,93.99
2017-01-14T03:45:37.460Z,93.51
2017-01-14T03:46:46.440Z,93.99
2017-01-14T03:47:55.417Z,93.8
2017-01-14T03:49:04.431Z,93.51
2017-01-14T03:50:13.433Z,93.8
2017-01-14T03:51:22.412Z,93.89
2017-01-14T03:52:31.394Z,94.08
2017-01-14T03:53:40.376Z,93.8
2017-01-14T03:54:49.355Z,93.32
2017-01-14T03:55:58.331Z,93.7
2017-01-14T03:57:07.311Z,93.7
2017-01-14T03:58:16.287Z,93.42
2017-01-14T03:59:25.266Z,93.89
2017-01-14T04:00:34.249Z,93.61
2017-01-14T04:01:43.225Z,94.46
2017-01-14T04:02:52.206Z,94.74
2017-01-14T04:04:01.188Z,94.18
2017-01-14T04:05:10.178Z,94.37
2017-01-14T04:06:19.162Z,94.27
2017-01-14T04:07:28.151Z,94.51
2017-01-14T04:08:37.132Z,94.51
2017-01-14T04:09:46.114Z,94.7
2017-01-14T04:10:55.097Z,94.6
2017-01-14T04:12:04.103Z,93.65
2017-01-14T04:13:13.088Z,93.89
2017-01-14T04:14:22.067Z,94.46
2017-01-14T04:15:31.056Z,94.23
2017-01-14T04:16:40.033Z,94.51
2017-01-14T04:17:49.007Z,94.32
2017-01-14T04:18:57.994Z,94.89
2017-01-14T04:20:07.000Z,94.6
2017-01-14T04:21:15.982Z,94.6
2017-01-14T04:22:24.969Z,93.94
2017-01-14T04:23:33.951Z,93.75
2017-01-14T04:24:42.927Z,93.99
2017-01-14T04:25:51.907Z,93.75
2017-01-14T04:27:00.886Z,94.74
2017-01-14T04:28:09.867Z,94.56
2017-01-14T04:29:18.848Z,94.37
2017-01-14T04:30:27.825Z,94.27
2017-01-14T04:31:36.804Z,94.93
2017-01-14T04:32:45.784Z,94.84
2017-01-14T04:33:54.776Z,94.27
2017-01-14T04:35:03.755Z,94.65
2017-01-14T04:36:12.738Z,94.56
2017-01-14T04:37:21.714Z,95.12
2017-01-14T04:38:30.693Z,95.59
2017-01-14T04:39:39.670Z,94.93
2017-01-14T04:40:48.651Z,94.65
2017-01-14T04:41:57.628Z,94.84
2017-01-14T04:43:06.608Z,95.21
2017-01-14T04:44:15.590Z,95.03
2017-01-14T04:45:24.568Z,94.84
2017-01-14T04:46:33.555Z,95.03
2017-01-14T04:47:42.534Z,95.4
2017-01-14T04:48:51.522Z,94.65
2017-01-14T04:50:00.505Z,94.74
2017-01-14T04:51:09.483Z,94.65
2017-01-14T04:52:18.468Z,95.03
2017-01-14T04:53:27.450Z,95.03
2017-01-14T04:54:36.433Z,95.21
2017-01-14T04:55:45.411Z,95.12
2017-01-14T04:56:54.395Z,95.5
2017-01-14T04:58:03.376Z,95.59
2017-01-14T04:59:12.356Z,95.03
2017-01-14T05:00:21.338Z,95.21
2017-01-14T05:01:30.315Z,94.84
2017-01-14T05:02:39.290Z,94.89
2017-01-14T05:03:48.273Z,94.65
2017-01-14T05:04:57.250Z,94.56
2017-01-14T05:06:06.229Z,94.84
2017-01-14T05:07:15.210Z,94.65
2017-01-14T05:08:24.185Z,95.21
2017-01-14T05:09:33.164Z,95.03
2017-01-14T05:10:42.145Z,94.84
2017-01-14T05:11:51.127Z,94.74
2017-01-14T05:13:00.106Z,94.84
2017-01-14T05:14:09.086Z,94.65
2017-01-14T05:15:18.068Z,94.74
2017-01-14T05:16:27.049Z,95.12
2017-01-14T05:17:36.024Z,94.65
2017-01-14T05:18:45.004Z,94.84
2017-01-14T05:19:53.990Z,95.4
2017-01-14T05:21:02.967Z,95.03
2017-01-14T05:22:11.945Z,95.59
2017-01-14T05:23:20.926Z,94.93
2017-01-14T05:24:29.906Z,94.93
2017-01-14T05:25:38.886Z,94.89
2017-01-14T05:26:47.861Z,95.03
2017-01-14T05:27:56.842Z,94.37
2017-01-14T05:29:05.827Z,94.37
2017-01-14T05:30:14.808Z,95.03
2017-01-14T05:31:23.787Z,95.78
2017-01-14T05:32:32.796Z,95.59
2017-01-14T05:33:41.786Z,96.07
2017-01-14T05:34:50.765Z,95.45
2017-01-14T05:35:59.745Z,95.07
2017-01-14T05:37:08.725Z,95.45
2017-01-14T05:38:17.706Z,95.36
2017-01-14T05:39:26.686Z,95.36
2017-01-14T05:40:35.668Z,95.26
2017-01-14T05:41:44.651Z,95.55
2017-01-14T05:42:53.627Z,95.45
2017-01-14T05:44:02.612Z,95.64
2017-01-14T05:45:11.593Z,95.55
2017-01-14T05:46:20.574Z,95.26
2017-01-14T05:47:29.557Z,95.83
2017-01-14T05:48:38.565Z,95.74
2017-01-14T05:49:47.576Z,95.45
2017-01-14T05:50:56.552Z,95.64
2017-01-14T05:52:05.532Z,95.45
2017-01-14T05:53:14.514Z,95.45
2017-01-14T05:54:23.508Z,95.55
2017-01-14T05:55:32.491Z,95.45
2017-01-14T05:56:41.470Z,95.64
2017-01-14T05:57:50.449Z,95.64
2017-01-14T05:58:59.430Z,95.45
2017-01-14T06:00:08.415Z,95.07
2017-01-14T06:01:17.402Z,94.6
2017-01-14T06:02:26.383Z,94.23
2017-01-14T06:03:35.364Z,94.51
2017-01-14T06:04:44.348Z,94.23
2017-01-14T06:05:53.324Z,94.6
2017-01-14T06:07:02.307Z,94.32
2017-01-14T06:08:11.289Z,95.07
2017-01-14T06:09:20.275Z,94.7
2017-01-14T06:10:29.256Z,95.07
2017-01-14T06:11:38.234Z,94.7
2017-01-14T06:12:47.215Z,94.7
2017-01-14T06:13:56.198Z,94.98
2017-01-14T06:15:05.189Z,95.07
2017-01-14T06:16:14.171Z,95.45
2017-01-14T06:17:23.159Z,95.64
2017-01-14T06:18:32.140Z,95.64
2017-01-14T06:19:41.125Z,95.55
2017-01-14T06:20:50.110Z,94.7
2017-01-14T06:21:59.094Z,94.79
2017-01-14T06:23:08.077Z,94.7
2017-01-14T06:24:17.057Z,94.89
2017-01-14T06:25:26.038Z,94.89
2017-01-14T06:26:35.019Z,95.07
2017-01-14T06:27:44.006Z,95.07
2017-01-14T06:28:52.989Z,95.55
2017-01-14T06:30:01.969Z,95.45
2017-01-14T06:31:10.956Z,95.17
2017-01-14T06:32:19.938Z,94.79
2017-01-14T06:33:28.919Z,94.42
2017-01-14T06:34:37.898Z,94.42
2017-01-14T06:35:46.882Z,95.07
2017-01-14T06:36:55.882Z,95.26
2017-01-14T06:38:04.869Z,95.45
2017-01-14T06:39:13.847Z,95.45
2017-01-14T06:40:22.828Z,95.64
2017-01-14T06:41:31.808Z,94.7
2017-01-14T06:42:40.786Z,94.51
2017-01-14T06:43:49.768Z,94.51
2017-01-14T06:44:58.749Z,94.7
2017-01-14T06:46:07.730Z,94.04
2017-01-14T06:47:16.730Z,93.65
2017-01-14T06:48:25.705Z,93.75
2017-01-14T06:49:34.691Z,93.94
2017-01-14T06:50:43.673Z,94.7
2017-01-14T06:51:52.654Z,94.42
2017-01-14T06:53:01.635Z,94.42
2017-01-14T06:54:10.620Z,94.42
2017-01-14T06:55:19.610Z,94.6
2017-01-14T06:56:28.591Z,94.51
2017-01-14T06:57:37.573Z,94.6
2017-01-14T06:58:46.552Z,94.51
2017-01-14T06:59:55.529Z,94.79
2017-01-14T07:01:04.507Z,94.42
2017-01-14T07:02:13.497Z,93.94
2017-01-14T07:03:22.477Z,94.51
2017-01-14T07:04:31.457Z,94.32
2017-01-14T07:05:40.435Z,94.32
2017-01-14T07:06:49.416Z,94.51
2017-01-14T07:07:58.395Z,93.75
2017-01-14T07:09:07.395Z,93.65
2017-01-14T07:10:16.372Z,93.65
2017-01-14T07:11:25.348Z,94.7
2017-01-14T07:12:34.334Z,93.84
2017-01-14T07:13:43.315Z,94.6
2017-01-14T07:14:52.302Z,93.89
2017-01-14T07:16:01.284Z,94.08
2017-01-14T07:17:10.261Z,94.6
2017-01-14T07:18:19.244Z,94.42
2017-01-14T07:19:28.223Z,94.6
2017-01-14T07:20:37.208Z,94.7
2017-01-14T07:21:46.217Z,93.99
2017-01-14T07:22:55.205Z,94.65
2017-01-14T07:24:04.186Z,94.42
2017-01-14T07:25:13.190Z,94.65
2017-01-14T07:26:22.171Z,93.89
2017-01-14T07:27:31.151Z,93.89
2017-01-14T07:28:40.136Z,93.99
2017-01-14T07:29:49.118Z,94.79
2017-01-14T07:30:58.124Z,94.65
2017-01-14T07:32:07.137Z,94.65
2017-01-14T07:33:16.116Z,93.89
2017-01-14T07:34:25.111Z,94.56
2017-01-14T07:35:34.095Z,94.74
2017-01-14T07:36:43.104Z,94.65
2017-01-14T07:37:52.085Z,95.03
2017-01-14T07:39:01.065Z,94.84
2017-01-14T07:40:10.050Z,95.03
2017-01-14T07:41:19.034Z,94.56
2017-01-14T07:42:28.015Z,93.89
2017-01-14T07:43:36.995Z,94.08
2017-01-14T07:44:45.976Z,93.61
2017-01-14T07:45:54.965Z,93.51
2017-01-14T07:47:04.358Z,93.61
2017-01-14T07:48:13.350Z,93.8
2017-01-14T07:49:22.346Z,93.8
2017-01-14T07:50:31.323Z,93.61
2017-01-14T07:51:40.311Z,93.7
2017-01-14T07:52:49.293Z,92.94
2017-01-14T07:53:58.272Z,93.13
2017-01-14T07:55:07.258Z,93.23
2017-01-14T07:56:16.266Z,92.9
2017-01-14T07:57:25.275Z,93.23
2017-01-14T07:58:34.255Z,93.7
2017-01-14T07:59:43.237Z,94.08
2017-01-14T08:00:52.215Z,94.79
2017-01-14T08:02:01.392Z,94.56
2017-01-14T08:03:10.641Z,95.03
2017-01-14T08:04:19.623Z,95.03
2017-01-14T08:05:28.607Z,94.93
2017-01-14T08:06:37.594Z,95.12
2017-01-14T08:07:46.573Z,95.22
2017-01-14T08:08:55.550Z,93.7
2017-01-14T08:10:04.531Z,93.7
2017-01-14T08:11:13.511Z,93.61
2017-01-14T08:12:22.492Z,93.32
2017-01-14T08:13:31.475Z,93.04
2017-01-14T08:14:40.456Z,93.51
2017-01-14T08:15:49.434Z,94.74
2017-01-14T08:16:58.420Z,93.99
2017-01-14T08:18:07.419Z,93.32
2017-01-14T08:19:16.413Z,93.51
2017-01-14T08:20:25.392Z,93.99
2017-01-14T08:21:34.378Z,93.32
2017-01-14T08:22:43.360Z,93.23
2017-01-14T08:23:52.343Z,93.7
2017-01-14T08:25:01.329Z,93.23
2017-01-14T08:26:10.317Z,93.61
2017-01-14T08:27:19.455Z,93.7
2017-01-14T08:28:28.438Z,93.23
2017-01-14T08:29:37.423Z,93.08
2017-01-14T08:30:46.435Z,93.46
2017-01-14T08:31:56.084Z,93.8
2017-01-14T08:33:05.062Z,93.89
2017-01-14T08:34:14.046Z,93.23
2017-01-14T08:35:23.031Z,93.08
2017-01-14T08:36:32.014Z,92.99
2017-01-14T08:37:41.375Z,93.75
2017-01-14T08:38:51.593Z,93.8
2017-01-14T08:40:00.583Z,93.37
2017-01-14T08:41:09.931Z,93.61
2017-01-14T08:42:18.910Z,94.04
2017-01-14T08:43:28.271Z,93.65
2017-01-14T08:44:37.285Z,94.46
2017-01-14T08:45:46.265Z,93.89
2017-01-14T08:46:55.247Z,93.99
2017-01-14T08:48:04.225Z,93.61
2017-01-14T08:49:13.428Z,93.99
2017-01-14T08:50:22.774Z,93.89
2017-01-14T08:51:32.148Z,93.7
2017-01-14T08:52:41.131Z,94.27
2017-01-14T08:53:50.112Z,94.46
2017-01-14T08:54:59.097Z,94.56
2017-01-14T08:56:08.634Z,94.08
2017-01-14T08:57:18.142Z,94.65
2017-01-14T08:58:27.537Z,94.27
2017-01-14T08:59:36.580Z,94.37
2017-01-14T09:00:45.749Z,94.56
2017-01-14T09:01:54.943Z,93.7
2017-01-14T09:03:04.200Z,93.7
2017-01-14T09:04:13.191Z,93.8
2017-01-14T09:05:22.179Z,93.23
2017-01-14T09:06:31.157Z,93.42
2017-01-14T09:07:40.138Z,93.51
2017-01-14T09:08:49.120Z,93.13
2017-01-14T09:09:58.100Z,92.57
2017-01-14T09:11:07.081Z,91.71
2017-01-14T09:12:16.479Z,90.91
2017-01-14T09:13:25.459Z,92.33
2017-01-14T09:14:34.432Z,93.46
2017-01-14T09:15:43.782Z,93.65
2017-01-14T09:16:52.763Z,93.27
2017-01-14T09:18:01.895Z,93.08
2017-01-14T09:19:10.880Z,93.32
2017-01-14T09:20:20.243Z,93.7
2017-01-14T09:21:29.224Z,94.08
2017-01-14T09:22:38.203Z,93.89
2017-01-14T09:23:47.188Z,94.27
2017-01-14T09:24:56.170Z,94.37
2017-01-14T09:26:05.153Z,94.65
2017-01-14T09:27:14.130Z,94.56
2017-01-14T09:28:23.113Z,94.74
2017-01-14T09:29:32.100Z,95.03
2017-01-14T09:30:41.076Z,95.21
2017-01-14T09:31:50.055Z,95.4
2017-01-14T09:32:59.034Z,95.12
2017-01-14T09:34:08.016Z,95.5
2017-01-14T09:35:17.004Z,95.21
2017-01-14T09:36:25.989Z,95.31
2017-01-14T09:37:34.970Z,96.73
2017-01-14T09:38:43.953Z,96.64
2017-01-14T09:39:52.932Z,96.83
2017-01-14T09:41:01.916Z,97.49
2017-01-14T09:42:10.907Z,97.58
2017-01-14T09:43:19.892Z,97.25
2017-01-14T09:44:28.878Z,97.44
2017-01-14T09:45:37.857Z,97.25
2017-01-14T09:46:46.840Z,97.63
2017-01-14T09:47:55.822Z,97.44
2017-01-14T09:49:04.802Z,98.01
2017-01-14T09:50:13.783Z,98.3
2017-01-14T09:51:22.766Z,98.2
2017-01-14T09:52:31.778Z,98.3
2017-01-14T09:53:40.761Z,98.39
2017-01-14T09:54:49.744Z,98.11
2017-01-14T09:55:58.727Z,98.3
2017-01-14T09:57:07.708Z,98.01
2017-01-14T09:58:16.692Z,97.54
2017-01-14T09:59:25.672Z,97.73
2017-01-14T10:00:34.654Z,97.73
2017-01-14T10:01:43.639Z,97.35
2017-01-14T10:02:52.621Z,97.35
2017-01-14T10:04:01.602Z,97.54
2017-01-14T10:05:10.581Z,97.25
2017-01-14T10:06:19.568Z,97.44
2017-01-14T10:07:28.553Z,98.3
2017-01-14T10:08:37.530Z,98.01
2017-01-14T10:09:46.511Z,98.11
2017-01-14T10:10:55.492Z,98.01
2017-01-14T10:12:04.479Z,98.3
2017-01-14T10:13:13.466Z,98.01
2017-01-14T10:14:22.447Z,97.82
2017-01-14T10:15:31.428Z,97.63
2017-01-14T10:16:40.409Z,97.92
2017-01-14T10:17:49.390Z,98.01
2017-01-14T10:18:58.402Z,97.73
2017-01-14T10:20:07.383Z,97.25
2017-01-14T10:21:16.363Z,97.73
2017-01-14T10:22:25.345Z,98.01
2017-01-14T10:23:34.330Z,97.73
2017-01-14T10:24:43.315Z,97.92
2017-01-14T10:25:52.304Z,97.92
2017-01-14T10:27:01.288Z,97.44
2017-01-14T10:28:10.268Z,96.5
2017-01-14T10:29:19.249Z,96.78
2017-01-14T10:30:28.228Z,97.44
2017-01-14T10:31:37.211Z,97.92
2017-01-14T10:32:46.195Z,97.92
2017-01-14T10:33:55.173Z,98.49
2017-01-14T10:35:04.158Z,98.68
2017-01-14T10:36:13.167Z,98.3
2017-01-14T10:37:22.147Z,98.11
2017-01-14T10:38:31.132Z,98.58
2017-01-14T10:39:40.115Z,98.49
2017-01-14T10:40:49.100Z,98.44
2017-01-14T10:41:58.088Z,98.63
2017-01-14T10:43:07.070Z,98.16
2017-01-14T10:44:16.047Z,97.97
2017-01-14T10:45:25.026Z,97.59
2017-01-14T10:46:34.004Z,97.49
2017-01-14T10:47:42.990Z,97.3
2017-01-14T10:48:52.005Z,97.16
2017-01-14T10:50:00.986Z,97.25
2017-01-14T10:51:09.973Z,97.4
2017-01-14T10:52:18.955Z,97.16
2017-01-14T10:53:27.937Z,97.68
2017-01-14T10:54:36.923Z,97.25
2017-01-14T10:55:45.942Z,97.59
2017-01-14T10:56:54.926Z,97.59
2017-01-14T10:58:03.902Z,97.49
2017-01-14T10:59:12.882Z,97.21
2017-01-14T11:00:24.138Z,97.87
2017-01-14T11:01:33.117Z,97.3
2017-01-14T11:02:42.094Z,97.68
2017-01-14T11:03:51.074Z,97.4
2017-01-14T11:05:00.551Z,97.59
2017-01-14T11:06:10.459Z,97.4
2017-01-14T11:07:19.462Z,97.97
2017-01-14T11:08:29.480Z,97.59
2017-01-14T11:09:40.486Z,97.78
2017-01-14T11:10:49.492Z,97.4
2017-01-14T11:11:58.807Z,97.4
2017-01-14T11:13:09.523Z,97.49
2017-01-14T11:14:18.553Z,97.02
2017-01-14T11:15:28.285Z,96.64
2017-01-14T11:16:37.267Z,96.55
2017-01-14T11:17:47.269Z,96.64
2017-01-14T11:18:57.865Z,96.73
2017-01-14T11:20:06.857Z,96.17
2017-01-14T11:21:16.399Z,96.45
2017-01-14T11:22:27.012Z,96.55
2017-01-14T11:23:37.008Z,95.69
2017-01-14T11:24:47.600Z,96.07
2017-01-14T11:25:56.582Z,96.83
2017-01-14T11:27:05.635Z,96.83
2017-01-14T11:28:15.633Z,97.21
2017-01-14T11:29:24.623Z,96.36
2017-01-14T11:30:33.603Z,97.11
2017-01-14T11:31:43.731Z,96.83
2017-01-14T11:32:54.312Z,96.55
2017-01-14T11:34:04.326Z,96.73
2017-01-14T11:35:15.200Z,96.64
2017-01-14T11:36:24.185Z,96.36
2017-01-14T11:37:33.284Z,96.55
2017-01-14T11:38:43.878Z,96.36
2017-01-14T11:39:53.132Z,96.07
2017-01-14T11:41:02.920Z,95.6
2017-01-14T11:42:11.900Z,96.26
2017-01-14T11:43:21.443Z,96.73
2017-01-14T11:44:32.476Z,96.55
2017-01-14T11:45:41.454Z,96.64
2017-01-14T11:46:50.695Z,95.6
2017-01-14T11:48:00.522Z,95.79
2017-01-14T11:49:09.894Z,96.07
2017-01-14T11:50:20.830Z,96.26
2017-01-14T11:51:29.823Z,96.55
2017-01-14T11:52:39.761Z,96.36
2017-01-14T11:53:50.436Z,96.83
2017-01-14T11:54:59.698Z,96.73
2017-01-14T11:56:10.312Z,96.73
2017-01-14T11:57:19.289Z,96.83
2017-01-14T11:58:28.409Z,96.45
2017-01-14T11:59:38.803Z,96.73
2017-01-14T12:00:47.783Z,96.64
2017-01-14T12:01:57.029Z,96.64
2017-01-14T12:03:07.978Z,96.83
2017-01-14T12:04:16.960Z,97.02
2017-01-14T12:05:26.129Z,96.92
2017-01-14T12:06:36.185Z,96.64
2017-01-14T12:07:45.166Z,96.64
2017-01-14T12:08:55.061Z,97.02
2017-01-14T12:10:05.139Z,96.73
2017-01-14T12:11:14.123Z,97.02
2017-01-14T12:12:24.105Z,96.92
2017-01-14T12:13:33.992Z,96.55
2017-01-14T12:14:43.144Z,96.55
2017-01-14T12:15:52.132Z,96.55
2017-01-14T12:17:01.463Z,96.55
2017-01-14T12:18:11.237Z,96.73
2017-01-14T12:19:20.221Z,96.64
2017-01-14T12:20:29.495Z,96.83
2017-01-14T12:21:38.776Z,97.21
2017-01-14T12:22:47.864Z,96.55
2017-01-14T12:23:58.133Z,97.3
2017-01-14T12:25:07.114Z,96.55
2017-01-14T12:26:16.921Z,96.36
2017-01-14T12:27:26.336Z,96.83
2017-01-14T12:28:35.879Z,96.55
2017-01-14T12:29:45.885Z,96.83
2017-01-14T12:30:54.864Z,96.5
2017-01-14T12:32:04.111Z,96.69
2017-01-14T12:33:14.055Z,97.02
2017-01-14T12:34:23.043Z,97.02
2017-01-14T12:35:32.726Z,97.21
2017-01-14T12:36:42.997Z,97.35
2017-01-14T12:37:52.291Z,96.92
2017-01-14T12:39:02.570Z,97.06
2017-01-14T12:40:11.552Z,97.11
2017-01-14T12:41:20.648Z,96.73
2017-01-14T12:42:30.737Z,97.11
2017-01-14T12:43:39.716Z,96.64
2017-01-14T12:44:49.415Z,96.55
2017-01-14T12:45:58.400Z,96.45
2017-01-14T12:47:07.737Z,97.02
2017-01-14T12:48:17.797Z,96.92
2017-01-14T12:49:26.777Z,96.92
2017-01-14T12:50:36.366Z,97.02
2017-01-14T12:51:45.626Z,96.64
2017-01-14T12:52:55.035Z,97.02
2017-01-14T12:54:05.101Z,97.21
2017-01-14T12:55:14.085Z,96.92
2017-01-14T12:56:23.738Z,96.73
2017-01-14T12:57:33.390Z,97.3
2017-01-14T12:58:42.381Z,97.4
2017-01-14T12:59:51.977Z,97.11
2017-01-14T13:01:00.958Z,97.02
2017-01-14T13:02:10.066Z,97.02
2017-01-14T13:03:19.100Z,97.3
2017-01-14T13:04:28.268Z,97.49
2017-01-14T13:05:37.412Z,97.3
2017-01-14T13:06:46.403Z,97.11
2017-01-14T13:07:56.434Z,97.11
2017-01-14T13:09:06.799Z,97.4
2017-01-14T13:10:15.823Z,96.64
2017-01-14T13:11:24.985Z,95.98
2017-01-14T13:12:34.834Z,95.79
2017-01-14T13:13:44.133Z,96.07
2017-01-14T13:14:54.835Z,96.55
2017-01-14T13:16:04.153Z,96.26
2017-01-14T13:17:15.205Z,96.36
2017-01-14T13:18:25.050Z,96.17
2017-01-14T13:19:35.615Z,96.83
2017-01-14T13:20:44.606Z,96.73
2017-01-14T13:21:53.998Z,96.45
2017-01-14T13:23:05.426Z,96.07
2017-01-14T13:24:16.682Z,95.98
2017-01-14T13:25:25.672Z,95.6
2017-01-14T13:26:34.745Z,95.98
2017-01-14T13:27:44.560Z,95.98
2017-01-14T13:28:53.579Z,95.31
2017-01-14T13:30:02.566Z,95.6
2017-01-14T13:31:11.549Z,95.69
2017-01-14T13:32:20.541Z,95.6
2017-01-14T13:33:29.524Z,95.69
2017-01-14T13:34:38.511Z,95.69
2017-01-14T13:35:47.494Z,95.69
2017-01-14T13:36:56.479Z,95.98
2017-01-14T13:38:05.460Z,96.17
2017-01-14T13:39:14.441Z,95.22
2017-01-14T13:40:23.427Z,95.79
2017-01-14T13:41:32.421Z,95.79
2017-01-14T13:42:41.407Z,95.69
2017-01-14T13:43:50.392Z,95.79
2017-01-14T13:44:59.385Z,95.88
2017-01-14T13:46:08.368Z,95.79
2017-01-14T13:47:17.357Z,95.79
2017-01-14T13:48:26.337Z,95.6
2017-01-14T13:49:35.323Z,95.6
2017-01-14T13:50:44.310Z,95.6
2017-01-14T13:51:53.316Z,95.22
2017-01-14T13:53:02.299Z,95.5
2017-01-14T13:54:11.282Z,95.6
2017-01-14T13:55:20.269Z,95.22
2017-01-14T13:56:29.252Z,95.22
2017-01-14T13:57:38.241Z,94.74
2017-01-14T13:58:47.226Z,94.37
2017-01-14T13:59:56.212Z,94.84
2017-01-14T14:01:05.205Z,94.74
2017-01-14T14:02:14.188Z,94.93
2017-01-14T14:03:23.611Z,95.03
2017-01-14T14:04:32.602Z,95.03
2017-01-14T14:05:41.591Z,94.93
2017-01-14T14:06:50.577Z,94.65
2017-01-14T14:07:59.565Z,94.74
2017-01-14T14:09:08.547Z,95.12
2017-01-14T14:10:17.531Z,94.56
2017-01-14T14:11:26.517Z,94.74
2017-01-14T14:12:35.504Z,94.46
2017-01-14T14:13:44.491Z,94.27
2017-01-14T14:14:53.505Z,94.56
2017-01-14T14:16:02.494Z,94.46
2017-01-14T14:17:11.481Z,94.56
2017-01-14T14:18:20.483Z,93.8
2017-01-14T14:19:29.471Z,94.56
2017-01-14T14:20:38.455Z,94.65
2017-01-14T14:21:47.438Z,94.46
2017-01-14T14:22:56.424Z,93.99
2017-01-14T14:24:05.447Z,94.65
2017-01-14T14:25:14.440Z,93.99
2017-01-14T14:26:23.429Z,93.8
2017-01-14T14:27:32.411Z,93.51
2017-01-14T14:28:41.394Z,93.8
2017-01-14T14:29:50.375Z,92.57
2017-01-14T14:30:59.370Z,93.23
2017-01-14T14:32:08.353Z,93.51
2017-01-14T14:33:17.355Z,93.8
2017-01-14T14:34:26.336Z,92.66
2017-01-14T14:35:35.341Z,93.8
2017-01-14T14:36:44.337Z,93.89
2017-01-14T14:37:53.319Z,93.32
2017-01-14T14:39:02.297Z,93.8
2017-01-14T14:40:11.286Z,93.89
2017-01-14T14:41:20.272Z,93.99
2017-01-14T14:42:29.254Z,93.61
2017-01-14T14:43:38.238Z,94.74
2017-01-14T14:44:47.218Z,93.89
2017-01-14T14:45:56.198Z,93.89
2017-01-14T14:47:05.180Z,93.8
2017-01-14T14:48:14.174Z,93.89
2017-01-14T14:49:23.161Z,94.74
2017-01-14T14:50:32.141Z,94.65
2017-01-14T14:51:41.121Z,93.13
2017-01-14T14:52:50.103Z,93.89
2017-01-14T14:53:59.082Z,94.56
2017-01-14T14:55:08.063Z,93.8